sensor_id;sensor_type;location;lat;lon;timestamp;P1;durP1;ratioP1;P2;durP2;ratioP2
13672;SDS011;6909;52.202;9.876;2023-04-06T00:02:26;2.83;;;2.23;;
13672;SDS011;6909;52.202;9.876;2023-04-06T00:04:53;2.53;;;2.17;;
13672;SDS011;6909;52.202;9.876;2023-04-06T00:07:19;2.30;;;2.00;;
13672;SDS011;6909;52.202;9.876;2023-04-06T00:09:46;5.80;;;1.63;;
13672;SDS011;6909;52.202;9.876;2023-04-06T00:12:12;3.70;;;3.20;;
13672;SDS011;6909;52.202;9.876;2023-04-06T00:14:39;3.57;;;1.77;;
13672;SDS011;6909;52.202;9.876;2023-04-06T00:17:06;2.83;;;1.30;;
13672;SDS011;6909;52.202;9.876;2023-04-06T00:19:34;2.20;;;2.00;;
13672;SDS011;6909;52.202;9.876;2023-04-06T00:22:01;2.47;;;1.83;;
13672;SDS011;6909;52.202;9.876;2023-04-06T00:24:28;2.40;;;1.90;;
13672;SDS011;6909;52.202;9.876;2023-04-06T00:26:54;3.03;;;1.43;;
13672;SDS011;6909;52.202;9.876;2023-04-06T00:29:21;0.90;;;0.90;;
13672;SDS011;6909;52.202;9.876;2023-04-06T00:31:48;0.80;;;0.80;;
13672;SDS011;6909;52.202;9.876;2023-04-06T00:34:14;1.60;;;1.37;;
13672;SDS011;6909;52.202;9.876;2023-04-06T00:36:42;4.20;;;1.90;;
13672;SDS011;6909;52.202;9.876;2023-04-06T00:39:09;2.67;;;2.47;;
13672;SDS011;6909;52.202;9.876;2023-04-06T00:41:36;1.47;;;1.37;;
13672;SDS011;6909;52.202;9.876;2023-04-06T00:44:03;3.47;;;2.33;;
13672;SDS011;6909;52.202;9.876;2023-04-06T00:46:29;5.73;;;2.70;;
13672;SDS011;6909;52.202;9.876;2023-04-06T00:48:56;5.13;;;2.80;;
13672;SDS011;6909;52.202;9.876;2023-04-06T00:51:23;3.30;;;1.87;;
13672;SDS011;6909;52.202;9.876;2023-04-06T00:53:51;2.63;;;1.73;;
13672;SDS011;6909;52.202;9.876;2023-04-06T00:56:18;4.53;;;2.27;;
13672;SDS011;6909;52.202;9.876;2023-04-06T00:58:44;6.27;;;2.37;;
13672;SDS011;6909;52.202;9.876;2023-04-06T01:01:11;2.03;;;1.83;;
13672;SDS011;6909;52.202;9.876;2023-04-06T01:03:38;3.53;;;1.77;;
13672;SDS011;6909;52.202;9.876;2023-04-06T01:06:07;1.57;;;1.47;;
13672;SDS011;6909;52.202;9.876;2023-04-06T01:08:33;3.73;;;2.23;;
13672;SDS011;6909;52.202;9.876;2023-04-06T01:11:01;3.40;;;2.30;;
13672;SDS011;6909;52.202;9.876;2023-04-06T01:13:28;3.40;;;2.57;;
13672;SDS011;6909;52.202;9.876;2023-04-06T01:15:55;5.20;;;2.50;;
13672;SDS011;6909;52.202;9.876;2023-04-06T01:18:25;2.50;;;2.13;;
13672;SDS011;6909;52.202;9.876;2023-04-06T01:20:52;4.40;;;3.00;;
13672;SDS011;6909;52.202;9.876;2023-04-06T01:23:22;4.00;;;1.53;;
13672;SDS011;6909;52.202;9.876;2023-04-06T01:25:49;3.40;;;2.70;;
13672;SDS011;6909;52.202;9.876;2023-04-06T01:28:15;3.23;;;2.70;;
13672;SDS011;6909;52.202;9.876;2023-04-06T01:30:42;3.23;;;1.40;;
13672;SDS011;6909;52.202;9.876;2023-04-06T01:33:09;2.93;;;1.97;;
13672;SDS011;6909;52.202;9.876;2023-04-06T01:35:36;3.50;;;1.90;;
13672;SDS011;6909;52.202;9.876;2023-04-06T01:38:02;1.63;;;1.53;;
13672;SDS011;6909;52.202;9.876;2023-04-06T01:40:31;2.60;;;2.30;;
13672;SDS011;6909;52.202;9.876;2023-04-06T01:42:57;3.33;;;1.47;;
13672;SDS011;6909;52.202;9.876;2023-04-06T01:45:24;2.30;;;1.93;;
13672;SDS011;6909;52.202;9.876;2023-04-06T01:47:51;2.07;;;1.13;;
13672;SDS011;6909;52.202;9.876;2023-04-06T01:50:17;2.40;;;1.77;;
13672;SDS011;6909;52.202;9.876;2023-04-06T01:52:44;3.47;;;1.73;;
13672;SDS011;6909;52.202;9.876;2023-04-06T01:55:11;3.50;;;2.33;;
13672;SDS011;6909;52.202;9.876;2023-04-06T01:57:39;2.90;;;1.33;;
13672;SDS011;6909;52.202;9.876;2023-04-06T02:00:06;1.70;;;1.20;;
13672;SDS011;6909;52.202;9.876;2023-04-06T02:02:33;2.23;;;1.67;;
13672;SDS011;6909;52.202;9.876;2023-04-06T02:05:00;1.73;;;1.67;;
13672;SDS011;6909;52.202;9.876;2023-04-06T02:07:26;1.70;;;1.33;;
13672;SDS011;6909;52.202;9.876;2023-04-06T02:09:53;2.30;;;1.73;;
13672;SDS011;6909;52.202;9.876;2023-04-06T02:12:21;4.40;;;1.70;;
13672;SDS011;6909;52.202;9.876;2023-04-06T02:14:50;2.27;;;2.07;;
13672;SDS011;6909;52.202;9.876;2023-04-06T02:17:16;1.97;;;1.00;;
13672;SDS011;6909;52.202;9.876;2023-04-06T02:19:43;2.40;;;1.93;;
13672;SDS011;6909;52.202;9.876;2023-04-06T02:22:10;1.77;;;1.27;;
13672;SDS011;6909;52.202;9.876;2023-04-06T02:24:37;2.23;;;1.20;;
13672;SDS011;6909;52.202;9.876;2023-04-06T02:27:03;1.50;;;1.00;;
13672;SDS011;6909;52.202;9.876;2023-04-06T02:29:30;1.03;;;0.97;;
13672;SDS011;6909;52.202;9.876;2023-04-06T02:31:58;2.43;;;1.20;;
13672;SDS011;6909;52.202;9.876;2023-04-06T02:34:25;1.90;;;1.03;;
13672;SDS011;6909;52.202;9.876;2023-04-06T02:36:52;1.83;;;1.73;;
13672;SDS011;6909;52.202;9.876;2023-04-06T02:39:18;2.00;;;0.87;;
13672;SDS011;6909;52.202;9.876;2023-04-06T02:41:45;2.13;;;1.27;;
13672;SDS011;6909;52.202;9.876;2023-04-06T02:44:12;6.40;;;0.97;;
13672;SDS011;6909;52.202;9.876;2023-04-06T02:46:38;1.23;;;1.10;;
13672;SDS011;6909;52.202;9.876;2023-04-06T02:49:06;1.17;;;0.77;;
13672;SDS011;6909;52.202;9.876;2023-04-06T02:51:33;0.93;;;0.83;;
13672;SDS011;6909;52.202;9.876;2023-04-06T02:53:59;1.40;;;0.70;;
13672;SDS011;6909;52.202;9.876;2023-04-06T02:56:26;1.20;;;1.00;;
13672;SDS011;6909;52.202;9.876;2023-04-06T02:58:53;1.10;;;1.00;;
13672;SDS011;6909;52.202;9.876;2023-04-06T03:01:19;1.90;;;1.13;;
13672;SDS011;6909;52.202;9.876;2023-04-06T03:03:46;2.47;;;1.20;;
13672;SDS011;6909;52.202;9.876;2023-04-06T03:06:14;2.20;;;1.97;;
13672;SDS011;6909;52.202;9.876;2023-04-06T03:08:41;1.70;;;1.00;;
13672;SDS011;6909;52.202;9.876;2023-04-06T03:11:07;1.43;;;0.83;;
13672;SDS011;6909;52.202;9.876;2023-04-06T03:13:36;1.07;;;1.07;;
13672;SDS011;6909;52.202;9.876;2023-04-06T03:16:03;1.17;;;0.63;;
13672;SDS011;6909;52.202;9.876;2023-04-06T03:18:31;3.37;;;1.47;;
13672;SDS011;6909;52.202;9.876;2023-04-06T03:20:58;1.33;;;1.23;;
13672;SDS011;6909;52.202;9.876;2023-04-06T03:23:26;1.90;;;1.57;;
13672;SDS011;6909;52.202;9.876;2023-04-06T03:25:53;6.40;;;1.70;;
13672;SDS011;6909;52.202;9.876;2023-04-06T03:28:19;2.87;;;1.97;;
13672;SDS011;6909;52.202;9.876;2023-04-06T03:30:46;2.83;;;1.60;;
13672;SDS011;6909;52.202;9.876;2023-04-06T03:33:13;1.87;;;1.77;;
13672;SDS011;6909;52.202;9.876;2023-04-06T03:35:39;2.20;;;1.30;;
13672;SDS011;6909;52.202;9.876;2023-04-06T03:38:06;1.97;;;1.87;;
13672;SDS011;6909;52.202;9.876;2023-04-06T03:40:34;3.77;;;2.87;;
13672;SDS011;6909;52.202;9.876;2023-04-06T03:43:00;0.97;;;0.90;;
13672;SDS011;6909;52.202;9.876;2023-04-06T03:45:27;2.63;;;1.87;;
13672;SDS011;6909;52.202;9.876;2023-04-06T03:47:54;2.50;;;1.63;;
13672;SDS011;6909;52.202;9.876;2023-04-06T03:50:20;2.00;;;1.90;;
13672;SDS011;6909;52.202;9.876;2023-04-06T03:52:47;1.87;;;1.63;;
13672;SDS011;6909;52.202;9.876;2023-04-06T03:55:14;2.03;;;1.43;;
13672;SDS011;6909;52.202;9.876;2023-04-06T03:57:42;2.60;;;1.70;;
13672;SDS011;6909;52.202;9.876;2023-04-06T04:00:09;1.63;;;1.53;;
13672;SDS011;6909;52.202;9.876;2023-04-06T04:02:36;3.17;;;1.80;;
13672;SDS011;6909;52.202;9.876;2023-04-06T04:05:03;3.03;;;1.87;;
13672;SDS011;6909;52.202;9.876;2023-04-06T04:07:30;2.47;;;1.43;;
13672;SDS011;6909;52.202;9.876;2023-04-06T04:09:57;2.13;;;1.40;;
13672;SDS011;6909;52.202;9.876;2023-04-06T04:12:23;1.67;;;1.40;;
13672;SDS011;6909;52.202;9.876;2023-04-06T04:14:51;1.73;;;1.63;;
13672;SDS011;6909;52.202;9.876;2023-04-06T04:17:18;2.53;;;1.77;;
13672;SDS011;6909;52.202;9.876;2023-04-06T04:19:45;3.97;;;2.10;;
13672;SDS011;6909;52.202;9.876;2023-04-06T04:22:11;1.47;;;1.27;;
13672;SDS011;6909;52.202;9.876;2023-04-06T04:24:38;3.03;;;2.23;;
13672;SDS011;6909;52.202;9.876;2023-04-06T04:27:04;1.30;;;1.20;;
13672;SDS011;6909;52.202;9.876;2023-04-06T04:29:31;2.50;;;2.30;;
13672;SDS011;6909;52.202;9.876;2023-04-06T04:31:59;2.57;;;1.47;;
13672;SDS011;6909;52.202;9.876;2023-04-06T04:34:28;2.20;;;1.90;;
13672;SDS011;6909;52.202;9.876;2023-04-06T04:36:56;1.43;;;1.33;;
13672;SDS011;6909;52.202;9.876;2023-04-06T04:39:22;2.17;;;1.67;;
13672;SDS011;6909;52.202;9.876;2023-04-06T04:41:49;4.00;;;2.47;;
13672;SDS011;6909;52.202;9.876;2023-04-06T04:44:16;4.10;;;2.40;;
13672;SDS011;6909;52.202;9.876;2023-04-06T04:46:43;2.50;;;2.13;;
13672;SDS011;6909;52.202;9.876;2023-04-06T04:49:10;3.13;;;1.93;;
13672;SDS011;6909;52.202;9.876;2023-04-06T04:51:37;3.60;;;1.73;;
13672;SDS011;6909;52.202;9.876;2023-04-06T04:54:04;2.27;;;2.07;;
13672;SDS011;6909;52.202;9.876;2023-04-06T04:56:30;4.20;;;2.80;;
13672;SDS011;6909;52.202;9.876;2023-04-06T04:58:57;3.07;;;2.03;;
13672;SDS011;6909;52.202;9.876;2023-04-06T05:01:24;5.27;;;2.17;;
13672;SDS011;6909;52.202;9.876;2023-04-06T05:03:51;1.60;;;1.50;;
13672;SDS011;6909;52.202;9.876;2023-04-06T05:06:18;2.50;;;1.77;;
13672;SDS011;6909;52.202;9.876;2023-04-06T05:08:45;2.67;;;2.23;;
13672;SDS011;6909;52.202;9.876;2023-04-06T05:11:12;1.70;;;1.30;;
13672;SDS011;6909;52.202;9.876;2023-04-06T05:13:38;1.63;;;1.53;;
13672;SDS011;6909;52.202;9.876;2023-04-06T05:16:05;11.77;;;2.10;;
13672;SDS011;6909;52.202;9.876;2023-04-06T05:18:32;2.37;;;1.90;;
13672;SDS011;6909;52.202;9.876;2023-04-06T05:20:59;2.43;;;1.93;;
13672;SDS011;6909;52.202;9.876;2023-04-06T05:23:27;1.40;;;1.30;;
13672;SDS011;6909;52.202;9.876;2023-04-06T05:25:53;1.53;;;1.43;;
13672;SDS011;6909;52.202;9.876;2023-04-06T05:28:20;5.20;;;2.50;;
13672;SDS011;6909;52.202;9.876;2023-04-06T05:30:47;2.20;;;2.00;;
13672;SDS011;6909;52.202;9.876;2023-04-06T05:33:13;2.50;;;2.10;;
13672;SDS011;6909;52.202;9.876;2023-04-06T05:35:40;3.70;;;2.93;;
13672;SDS011;6909;52.202;9.876;2023-04-06T05:38:07;2.70;;;2.50;;
13672;SDS011;6909;52.202;9.876;2023-04-06T05:40:36;3.20;;;2.80;;
13672;SDS011;6909;52.202;9.876;2023-04-06T05:43:05;2.60;;;2.40;;
13672;SDS011;6909;52.202;9.876;2023-04-06T05:45:32;2.73;;;2.53;;
13672;SDS011;6909;52.202;9.876;2023-04-06T05:47:59;2.90;;;2.47;;
13672;SDS011;6909;52.202;9.876;2023-04-06T05:50:26;3.47;;;2.90;;
13672;SDS011;6909;52.202;9.876;2023-04-06T05:52:53;2.90;;;2.53;;
13672;SDS011;6909;52.202;9.876;2023-04-06T05:55:19;3.87;;;3.00;;
13672;SDS011;6909;52.202;9.876;2023-04-06T05:57:47;6.50;;;2.47;;
13672;SDS011;6909;52.202;9.876;2023-04-06T06:00:15;3.10;;;2.23;;
13672;SDS011;6909;52.202;9.876;2023-04-06T06:02:41;3.17;;;2.40;;
13672;SDS011;6909;52.202;9.876;2023-04-06T06:05:08;2.60;;;2.30;;
13672;SDS011;6909;52.202;9.876;2023-04-06T06:07:37;4.07;;;2.20;;
13672;SDS011;6909;52.202;9.876;2023-04-06T06:10:04;2.43;;;2.00;;
13672;SDS011;6909;52.202;9.876;2023-04-06T06:12:31;3.00;;;2.60;;
13672;SDS011;6909;52.202;9.876;2023-04-06T06:14:59;2.23;;;2.03;;
13672;SDS011;6909;52.202;9.876;2023-04-06T06:17:26;2.77;;;2.43;;
13672;SDS011;6909;52.202;9.876;2023-04-06T06:19:53;2.57;;;2.30;;
13672;SDS011;6909;52.202;9.876;2023-04-06T06:22:20;3.23;;;2.27;;
13672;SDS011;6909;52.202;9.876;2023-04-06T06:24:46;3.43;;;2.10;;
13672;SDS011;6909;52.202;9.876;2023-04-06T06:27:14;2.43;;;2.17;;
13672;SDS011;6909;52.202;9.876;2023-04-06T06:29:41;2.97;;;2.53;;
13672;SDS011;6909;52.202;9.876;2023-04-06T06:32:09;2.73;;;2.27;;
13672;SDS011;6909;52.202;9.876;2023-04-06T06:34:36;1.87;;;1.70;;
13672;SDS011;6909;52.202;9.876;2023-04-06T06:37:02;3.03;;;2.63;;
13672;SDS011;6909;52.202;9.876;2023-04-06T06:39:29;2.57;;;2.03;;
13672;SDS011;6909;52.202;9.876;2023-04-06T06:41:56;3.23;;;2.40;;
13672;SDS011;6909;52.202;9.876;2023-04-06T06:44:25;2.47;;;2.27;;
13672;SDS011;6909;52.202;9.876;2023-04-06T06:46:52;2.53;;;2.30;;
13672;SDS011;6909;52.202;9.876;2023-04-06T06:49:20;3.30;;;2.17;;
13672;SDS011;6909;52.202;9.876;2023-04-06T06:51:46;3.53;;;2.33;;
13672;SDS011;6909;52.202;9.876;2023-04-06T06:54:13;3.05;;;2.80;;
13672;SDS011;6909;52.202;9.876;2023-04-06T06:56:40;6.70;;;2.47;;
13672;SDS011;6909;52.202;9.876;2023-04-06T06:59:06;3.92;;;3.03;;
13672;SDS011;6909;52.202;9.876;2023-04-06T07:01:33;2.50;;;2.30;;
13672;SDS011;6909;52.202;9.876;2023-04-06T07:04:00;2.40;;;2.20;;
13672;SDS011;6909;52.202;9.876;2023-04-06T07:06:28;2.90;;;2.47;;
13672;SDS011;6909;52.202;9.876;2023-04-06T07:08:54;2.97;;;2.67;;
13672;SDS011;6909;52.202;9.876;2023-04-06T07:11:21;2.70;;;2.28;;
13672;SDS011;6909;52.202;9.876;2023-04-06T07:13:47;3.25;;;2.45;;
13672;SDS011;6909;52.202;9.876;2023-04-06T07:16:14;2.92;;;2.30;;
13672;SDS011;6909;52.202;9.876;2023-04-06T07:18:41;2.35;;;2.13;;
13672;SDS011;6909;52.202;9.876;2023-04-06T07:21:08;2.90;;;2.10;;
13672;SDS011;6909;52.202;9.876;2023-04-06T07:23:36;2.67;;;2.47;;
13672;SDS011;6909;52.202;9.876;2023-04-06T07:26:02;2.15;;;1.75;;
13672;SDS011;6909;52.202;9.876;2023-04-06T07:28:29;2.90;;;2.70;;
13672;SDS011;6909;52.202;9.876;2023-04-06T07:30:56;2.65;;;2.45;;
13672;SDS011;6909;52.202;9.876;2023-04-06T07:33:23;3.40;;;2.05;;
13672;SDS011;6909;52.202;9.876;2023-04-06T07:35:49;2.65;;;2.30;;
13672;SDS011;6909;52.202;9.876;2023-04-06T07:38:17;2.50;;;2.30;;
13672;SDS011;6909;52.202;9.876;2023-04-06T07:40:46;3.30;;;2.50;;
13672;SDS011;6909;52.202;9.876;2023-04-06T07:43:12;2.42;;;2.22;;
13672;SDS011;6909;52.202;9.876;2023-04-06T07:45:39;3.28;;;2.40;;
13672;SDS011;6909;52.202;9.876;2023-04-06T07:48:06;2.95;;;1.92;;
13672;SDS011;6909;52.202;9.876;2023-04-06T07:50:32;2.72;;;2.20;;
13672;SDS011;6909;52.202;9.876;2023-04-06T07:52:59;2.30;;;2.10;;
13672;SDS011;6909;52.202;9.876;2023-04-06T07:55:26;2.93;;;2.27;;
13672;SDS011;6909;52.202;9.876;2023-04-06T07:57:54;2.67;;;2.30;;
13672;SDS011;6909;52.202;9.876;2023-04-06T08:00:23;2.87;;;2.50;;
13672;SDS011;6909;52.202;9.876;2023-04-06T08:02:50;2.53;;;2.30;;
13672;SDS011;6909;52.202;9.876;2023-04-06T08:05:16;2.00;;;1.80;;
13672;SDS011;6909;52.202;9.876;2023-04-06T08:07:43;3.10;;;2.30;;
13672;SDS011;6909;52.202;9.876;2023-04-06T08:10:10;3.10;;;2.50;;
13672;SDS011;6909;52.202;9.876;2023-04-06T08:12:37;4.13;;;2.50;;
13672;SDS011;6909;52.202;9.876;2023-04-06T08:15:05;3.13;;;2.53;;
13672;SDS011;6909;52.202;9.876;2023-04-06T08:17:32;4.70;;;2.53;;
13672;SDS011;6909;52.202;9.876;2023-04-06T08:19:59;3.67;;;2.27;;
13672;SDS011;6909;52.202;9.876;2023-04-06T08:22:26;3.43;;;2.30;;
13672;SDS011;6909;52.202;9.876;2023-04-06T08:24:52;4.07;;;2.30;;
13672;SDS011;6909;52.202;9.876;2023-04-06T08:27:19;2.70;;;2.40;;
13672;SDS011;6909;52.202;9.876;2023-04-06T08:29:46;2.60;;;2.20;;
13672;SDS011;6909;52.202;9.876;2023-04-06T08:32:17;3.07;;;2.37;;
13672;SDS011;6909;52.202;9.876;2023-04-06T08:34:43;3.17;;;2.50;;
13672;SDS011;6909;52.202;9.876;2023-04-06T08:37:10;3.27;;;2.30;;
13672;SDS011;6909;52.202;9.876;2023-04-06T08:39:37;3.53;;;2.23;;
13672;SDS011;6909;52.202;9.876;2023-04-06T08:42:03;3.00;;;2.30;;
13672;SDS011;6909;52.202;9.876;2023-04-06T08:44:30;3.40;;;2.67;;
13672;SDS011;6909;52.202;9.876;2023-04-06T08:46:58;3.40;;;2.57;;
13672;SDS011;6909;52.202;9.876;2023-04-06T08:49:27;4.10;;;2.93;;
13672;SDS011;6909;52.202;9.876;2023-04-06T08:51:54;6.87;;;2.50;;
13672;SDS011;6909;52.202;9.876;2023-04-06T08:54:22;2.73;;;2.03;;
13672;SDS011;6909;52.202;9.876;2023-04-06T08:56:49;4.43;;;2.20;;
13672;SDS011;6909;52.202;9.876;2023-04-06T08:59:16;2.97;;;2.40;;
13672;SDS011;6909;52.202;9.876;2023-04-06T09:01:43;2.53;;;2.30;;
13672;SDS011;6909;52.202;9.876;2023-04-06T09:04:11;2.80;;;2.20;;
13672;SDS011;6909;52.202;9.876;2023-04-06T09:06:40;5.00;;;2.87;;
13672;SDS011;6909;52.202;9.876;2023-04-06T09:09:07;3.57;;;2.00;;
13672;SDS011;6909;52.202;9.876;2023-04-06T09:11:46;2.57;;;2.17;;
13672;SDS011;6909;52.202;9.876;2023-04-06T09:14:14;4.13;;;2.23;;
13672;SDS011;6909;52.202;9.876;2023-04-06T09:16:41;3.20;;;2.17;;
13672;SDS011;6909;52.202;9.876;2023-04-06T09:19:10;3.60;;;2.10;;
13672;SDS011;6909;52.202;9.876;2023-04-06T09:21:39;4.90;;;2.50;;
13672;SDS011;6909;52.202;9.876;2023-04-06T09:24:06;3.27;;;2.17;;
13672;SDS011;6909;52.202;9.876;2023-04-06T09:26:43;3.70;;;1.93;;
13672;SDS011;6909;52.202;9.876;2023-04-06T09:29:21;4.37;;;1.87;;
13672;SDS011;6909;52.202;9.876;2023-04-06T09:31:49;2.63;;;2.00;;
13672;SDS011;6909;52.202;9.876;2023-04-06T09:34:20;3.27;;;1.90;;
13672;SDS011;6909;52.202;9.876;2023-04-06T09:36:50;3.40;;;2.03;;
13672;SDS011;6909;52.202;9.876;2023-04-06T09:39:20;3.73;;;2.00;;
13672;SDS011;6909;52.202;9.876;2023-04-06T09:41:49;3.37;;;1.80;;
13672;SDS011;6909;52.202;9.876;2023-04-06T09:44:17;2.37;;;2.10;;
13672;SDS011;6909;52.202;9.876;2023-04-06T09:46:44;2.10;;;1.63;;
13672;SDS011;6909;52.202;9.876;2023-04-06T09:49:12;3.67;;;2.03;;
13672;SDS011;6909;52.202;9.876;2023-04-06T09:51:39;2.70;;;2.10;;
13672;SDS011;6909;52.202;9.876;2023-04-06T09:54:08;3.43;;;1.87;;
13672;SDS011;6909;52.202;9.876;2023-04-06T09:56:38;2.63;;;2.03;;
13672;SDS011;6909;52.202;9.876;2023-04-06T09:59:12;3.17;;;2.40;;
13672;SDS011;6909;52.202;9.876;2023-04-06T10:01:44;2.67;;;1.80;;
13672;SDS011;6909;52.202;9.876;2023-04-06T10:04:21;3.47;;;2.30;;
13672;SDS011;6909;52.202;9.876;2023-04-06T10:06:57;5.80;;;2.10;;
13672;SDS011;6909;52.202;9.876;2023-04-06T10:09:28;3.40;;;1.83;;
13672;SDS011;6909;52.202;9.876;2023-04-06T10:12:00;3.53;;;2.33;;
13672;SDS011;6909;52.202;9.876;2023-04-06T10:14:28;2.80;;;2.20;;
13672;SDS011;6909;52.202;9.876;2023-04-06T10:16:56;2.57;;;2.10;;
13672;SDS011;6909;52.202;9.876;2023-04-06T10:19:24;3.43;;;2.13;;
13672;SDS011;6909;52.202;9.876;2023-04-06T10:21:54;3.77;;;2.03;;
13672;SDS011;6909;52.202;9.876;2023-04-06T10:24:23;3.27;;;1.70;;
13672;SDS011;6909;52.202;9.876;2023-04-06T10:26:57;4.60;;;1.90;;
13672;SDS011;6909;52.202;9.876;2023-04-06T10:29:25;4.50;;;2.53;;
13672;SDS011;6909;52.202;9.876;2023-04-06T10:31:51;3.33;;;2.40;;
13672;SDS011;6909;52.202;9.876;2023-04-06T10:34:20;4.60;;;2.70;;
13672;SDS011;6909;52.202;9.876;2023-04-06T10:36:47;4.17;;;2.50;;
13672;SDS011;6909;52.202;9.876;2023-04-06T10:39:13;4.10;;;2.80;;
13672;SDS011;6909;52.202;9.876;2023-04-06T10:41:42;3.20;;;2.17;;
13672;SDS011;6909;52.202;9.876;2023-04-06T10:44:17;4.77;;;2.30;;
13672;SDS011;6909;52.202;9.876;2023-04-06T10:46:51;2.90;;;2.30;;
13672;SDS011;6909;52.202;9.876;2023-04-06T10:49:19;2.53;;;1.93;;
13672;SDS011;6909;52.202;9.876;2023-04-06T10:51:50;3.67;;;2.63;;
13672;SDS011;6909;52.202;9.876;2023-04-06T10:54:17;3.77;;;2.30;;
13672;SDS011;6909;52.202;9.876;2023-04-06T10:56:48;3.43;;;1.80;;
13672;SDS011;6909;52.202;9.876;2023-04-06T10:59:18;4.13;;;2.40;;
13672;SDS011;6909;52.202;9.876;2023-04-06T11:01:45;2.53;;;2.03;;
13672;SDS011;6909;52.202;9.876;2023-04-06T11:04:15;4.07;;;2.87;;
13672;SDS011;6909;52.202;9.876;2023-04-06T11:06:45;3.23;;;2.60;;
13672;SDS011;6909;52.202;9.876;2023-04-06T11:09:22;3.67;;;1.93;;
13672;SDS011;6909;52.202;9.876;2023-04-06T11:11:52;3.73;;;2.27;;
13672;SDS011;6909;52.202;9.876;2023-04-06T11:14:19;4.00;;;2.83;;
13672;SDS011;6909;52.202;9.876;2023-04-06T11:16:46;5.87;;;3.20;;
13672;SDS011;6909;52.202;9.876;2023-04-06T11:19:14;4.67;;;3.50;;
13672;SDS011;6909;52.202;9.876;2023-04-06T11:21:42;3.47;;;2.43;;
13672;SDS011;6909;52.202;9.876;2023-04-06T11:24:12;3.13;;;2.83;;
13672;SDS011;6909;52.202;9.876;2023-04-06T11:26:41;3.73;;;2.73;;
13672;SDS011;6909;52.202;9.876;2023-04-06T11:29:12;5.20;;;2.93;;
13672;SDS011;6909;52.202;9.876;2023-04-06T11:31:42;3.23;;;2.70;;
13672;SDS011;6909;52.202;9.876;2023-04-06T11:34:12;4.13;;;2.80;;
13672;SDS011;6909;52.202;9.876;2023-04-06T11:36:42;4.40;;;2.90;;
13672;SDS011;6909;52.202;9.876;2023-04-06T11:39:09;4.40;;;2.60;;
13672;SDS011;6909;52.202;9.876;2023-04-06T11:41:37;5.00;;;3.00;;
13672;SDS011;6909;52.202;9.876;2023-04-06T11:44:04;5.17;;;3.30;;
13672;SDS011;6909;52.202;9.876;2023-04-06T11:46:33;3.77;;;2.83;;
13672;SDS011;6909;52.202;9.876;2023-04-06T11:49:00;4.37;;;3.50;;
13672;SDS011;6909;52.202;9.876;2023-04-06T11:51:27;4.30;;;2.73;;
13672;SDS011;6909;52.202;9.876;2023-04-06T11:53:54;4.27;;;3.20;;
13672;SDS011;6909;52.202;9.876;2023-04-06T11:56:25;5.03;;;3.07;;
13672;SDS011;6909;52.202;9.876;2023-04-06T11:58:54;4.10;;;2.77;;
13672;SDS011;6909;52.202;9.876;2023-04-06T12:01:21;4.30;;;2.57;;
13672;SDS011;6909;52.202;9.876;2023-04-06T12:03:49;3.90;;;2.57;;
13672;SDS011;6909;52.202;9.876;2023-04-06T12:06:16;3.73;;;2.93;;
13672;SDS011;6909;52.202;9.876;2023-04-06T12:08:43;3.93;;;3.17;;
13672;SDS011;6909;52.202;9.876;2023-04-06T12:11:10;3.90;;;2.80;;
13672;SDS011;6909;52.202;9.876;2023-04-06T12:13:37;4.07;;;3.00;;
13672;SDS011;6909;52.202;9.876;2023-04-06T12:16:04;5.63;;;3.23;;
13672;SDS011;6909;52.202;9.876;2023-04-06T12:18:31;4.57;;;2.97;;
13672;SDS011;6909;52.202;9.876;2023-04-06T12:20:59;5.90;;;3.30;;
13672;SDS011;6909;52.202;9.876;2023-04-06T12:23:26;3.70;;;2.83;;
13672;SDS011;6909;52.202;9.876;2023-04-06T12:25:52;3.77;;;3.13;;
13672;SDS011;6909;52.202;9.876;2023-04-06T12:28:20;5.00;;;3.43;;
13672;SDS011;6909;52.202;9.876;2023-04-06T12:30:48;4.33;;;2.87;;
13672;SDS011;6909;52.202;9.876;2023-04-06T12:33:15;6.63;;;4.00;;
13672;SDS011;6909;52.202;9.876;2023-04-06T12:35:41;4.43;;;2.90;;
13672;SDS011;6909;52.202;9.876;2023-04-06T12:38:09;5.87;;;3.17;;
13672;SDS011;6909;52.202;9.876;2023-04-06T12:40:36;3.93;;;2.33;;
13672;SDS011;6909;52.202;9.876;2023-04-06T12:43:04;4.27;;;3.10;;
13672;SDS011;6909;52.202;9.876;2023-04-06T12:45:30;4.57;;;2.87;;
13672;SDS011;6909;52.202;9.876;2023-04-06T12:47:57;4.30;;;3.00;;
13672;SDS011;6909;52.202;9.876;2023-04-06T12:50:24;4.27;;;3.00;;
13672;SDS011;6909;52.202;9.876;2023-04-06T12:52:51;5.60;;;3.63;;
13672;SDS011;6909;52.202;9.876;2023-04-06T12:55:19;5.00;;;3.27;;
13672;SDS011;6909;52.202;9.876;2023-04-06T12:57:46;4.37;;;3.00;;
13672;SDS011;6909;52.202;9.876;2023-04-06T13:00:14;3.30;;;2.60;;
13672;SDS011;6909;52.202;9.876;2023-04-06T13:02:41;4.33;;;3.00;;
13672;SDS011;6909;52.202;9.876;2023-04-06T13:05:11;3.30;;;2.50;;
13672;SDS011;6909;52.202;9.876;2023-04-06T13:07:38;3.70;;;2.80;;
13672;SDS011;6909;52.202;9.876;2023-04-06T13:10:05;4.50;;;3.17;;
13672;SDS011;6909;52.202;9.876;2023-04-06T13:12:34;3.87;;;2.50;;
13672;SDS011;6909;52.202;9.876;2023-04-06T13:15:01;3.93;;;2.67;;
13672;SDS011;6909;52.202;9.876;2023-04-06T13:17:28;3.83;;;2.93;;
13672;SDS011;6909;52.202;9.876;2023-04-06T13:19:55;4.23;;;2.73;;
13672;SDS011;6909;52.202;9.876;2023-04-06T13:22:21;3.80;;;2.43;;
13672;SDS011;6909;52.202;9.876;2023-04-06T13:24:48;5.77;;;3.60;;
13672;SDS011;6909;52.202;9.876;2023-04-06T13:27:15;5.20;;;3.10;;
13672;SDS011;6909;52.202;9.876;2023-04-06T13:29:43;4.27;;;2.60;;
13672;SDS011;6909;52.202;9.876;2023-04-06T13:32:09;4.73;;;2.87;;
13672;SDS011;6909;52.202;9.876;2023-04-06T13:34:36;5.23;;;3.07;;
13672;SDS011;6909;52.202;9.876;2023-04-06T13:37:03;4.67;;;3.13;;
13672;SDS011;6909;52.202;9.876;2023-04-06T13:39:30;3.70;;;2.67;;
13672;SDS011;6909;52.202;9.876;2023-04-06T13:41:57;3.83;;;2.23;;
13672;SDS011;6909;52.202;9.876;2023-04-06T13:44:24;3.13;;;2.60;;
13672;SDS011;6909;52.202;9.876;2023-04-06T13:46:52;3.37;;;2.50;;
13672;SDS011;6909;52.202;9.876;2023-04-06T13:49:19;3.80;;;2.40;;
13672;SDS011;6909;52.202;9.876;2023-04-06T13:51:46;3.77;;;3.03;;
13672;SDS011;6909;52.202;9.876;2023-04-06T13:54:13;4.30;;;3.07;;
13672;SDS011;6909;52.202;9.876;2023-04-06T13:56:40;4.87;;;2.77;;
13672;SDS011;6909;52.202;9.876;2023-04-06T13:59:06;4.37;;;2.73;;
13672;SDS011;6909;52.202;9.876;2023-04-06T14:01:33;2.73;;;2.30;;
13672;SDS011;6909;52.202;9.876;2023-04-06T14:04:01;4.33;;;2.37;;
13672;SDS011;6909;52.202;9.876;2023-04-06T14:06:27;3.93;;;2.70;;
13672;SDS011;6909;52.202;9.876;2023-04-06T14:08:54;4.03;;;2.97;;
13672;SDS011;6909;52.202;9.876;2023-04-06T14:11:21;4.83;;;2.17;;
13672;SDS011;6909;52.202;9.876;2023-04-06T14:13:48;5.07;;;2.97;;
13672;SDS011;6909;52.202;9.876;2023-04-06T14:16:15;4.43;;;2.60;;
13672;SDS011;6909;52.202;9.876;2023-04-06T14:18:44;5.30;;;2.57;;
13672;SDS011;6909;52.202;9.876;2023-04-06T14:21:12;3.30;;;2.50;;
13672;SDS011;6909;52.202;9.876;2023-04-06T14:23:39;3.80;;;2.77;;
13672;SDS011;6909;52.202;9.876;2023-04-06T14:26:06;4.87;;;2.87;;
13672;SDS011;6909;52.202;9.876;2023-04-06T14:28:34;3.13;;;2.50;;
13672;SDS011;6909;52.202;9.876;2023-04-06T14:31:02;4.03;;;3.07;;
13672;SDS011;6909;52.202;9.876;2023-04-06T14:33:36;4.80;;;2.97;;
13672;SDS011;6909;52.202;9.876;2023-04-06T14:36:03;9.23;;;2.47;;
13672;SDS011;6909;52.202;9.876;2023-04-06T14:38:32;5.13;;;2.83;;
13672;SDS011;6909;52.202;9.876;2023-04-06T14:40:59;6.13;;;3.37;;
13672;SDS011;6909;52.202;9.876;2023-04-06T14:43:25;5.80;;;2.83;;
13672;SDS011;6909;52.202;9.876;2023-04-06T14:45:52;3.57;;;2.47;;
13672;SDS011;6909;52.202;9.876;2023-04-06T14:48:19;5.37;;;3.03;;
13672;SDS011;6909;52.202;9.876;2023-04-06T14:50:51;3.77;;;2.73;;
13672;SDS011;6909;52.202;9.876;2023-04-06T14:53:19;4.40;;;3.03;;
13672;SDS011;6909;52.202;9.876;2023-04-06T14:55:47;3.10;;;2.03;;
13672;SDS011;6909;52.202;9.876;2023-04-06T14:58:14;3.60;;;2.33;;
13672;SDS011;6909;52.202;9.876;2023-04-06T15:00:41;4.80;;;2.97;;
13672;SDS011;6909;52.202;9.876;2023-04-06T15:03:08;4.03;;;2.80;;